createdAt,value
2023-01-27T00:00:28.364Z,17.90
2023-01-27T00:05:53.348Z,17.02
2023-01-27T00:11:34.367Z,18.48
2023-01-27T00:16:58.337Z,18.88
2023-01-27T00:22:44.420Z,19.15
2023-01-27T00:28:29.368Z,19.88
2023-01-27T00:40:10.594Z,18.65
2023-01-27T00:45:59.631Z,17.98
2023-01-27T00:51:24.376Z,19.67
2023-01-27T00:56:49.414Z,18.80
2023-01-27T01:02:17.377Z,17.83
2023-01-27T17:30:14.760Z,4.80
2023-01-27T17:35:46.749Z,4.72
2023-01-27T17:41:12.787Z,3.60
2023-01-27T17:52:06.791Z,3.20
2023-01-27T17:57:39.803Z,3.08
2023-01-27T18:03:13.779Z,3.20
2023-01-27T18:08:46.785Z,4.03
2023-01-27T18:14:13.821Z,4.70
2023-01-27T18:19:41.882Z,4.07
2023-01-27T18:25:15.069Z,3.63
2023-01-27T18:30:46.792Z,4.80
2023-01-27T18:36:11.922Z,4.55
2023-01-27T18:41:46.880Z,4.43
2023-01-27T18:47:34.916Z,3.60
2023-01-27T18:53:09.889Z,2.90
2023-01-27T18:58:39.910Z,3.42
2023-01-27T19:04:06.886Z,3.78
2023-01-27T19:09:36.101Z,5.03
2023-01-27T19:15:05.859Z,5.47
2023-01-27T19:20:34.172Z,5.10
2023-01-27T19:26:04.006Z,4.88
2023-01-27T19:31:39.866Z,7.03
2023-01-27T19:37:06.895Z,8.77
2023-01-27T19:42:35.147Z,9.73
2023-01-27T19:48:06.880Z,10.52
2023-01-27T19:53:35.207Z,9.45
2023-01-27T19:59:01.857Z,10.23
2023-01-27T20:04:34.291Z,11.10
2023-01-27T20:15:21.065Z,13.38
2023-01-27T20:20:57.195Z,15.30
2023-01-27T20:26:22.574Z,16.17
2023-01-27T20:31:55.941Z,16.58
2023-01-27T20:37:27.857Z,17.17
2023-01-27T20:42:53.975Z,17.88
2023-01-27T20:48:35.853Z,16.88
2023-01-27T20:54:09.183Z,16.23
2023-01-27T21:05:28.062Z,11.70
2023-01-27T21:11:27.935Z,10.68
2023-01-27T21:17:11.035Z,10.27
2023-01-27T21:22:44.871Z,9.43
2023-01-27T21:28:12.962Z,8.20
2023-01-27T21:39:27.993Z,6.85
2023-01-27T21:45:20.940Z,6.95
2023-01-27T21:50:57.946Z,6.63
2023-01-27T21:56:34.980Z,5.63
2023-01-27T22:02:21.156Z,6.03
2023-01-27T22:08:06.068Z,6.47
2023-01-27T22:13:53.137Z,6.43
2023-01-27T22:19:48.357Z,6.70
2023-01-27T22:30:56.969Z,6.32
2023-01-27T22:36:26.002Z,6.60
2023-01-27T22:41:53.986Z,6.53
2023-01-27T22:47:29.960Z,4.95
2023-01-27T22:53:16.224Z,3.95
2023-01-27T23:04:33.935Z,3.55
2023-01-27T23:10:10.025Z,5.45
2023-01-27T23:15:34.938Z,9.35
2023-01-27T23:27:01.237Z,13.00
2023-01-27T23:37:56.320Z,13.50
2023-01-27T23:43:27.952Z,12.57
2023-01-27T23:49:00.157Z,14.07
2023-01-27T23:54:31.419Z,15.00
